Atalissa, IA

5:27 AM CST on December 18, 2014 (GMT -0600)
MesoWest I-92 @ Muscatine/Mississippi Riv IL US ILDOT | Change Station
CLOSE
Current Station
Personal Weather Station
Location: Muscatine, IA
Elevation: 534 ft
Nearby Weather Stations

Elev 534 ft 41.42 °N, 91.03 °W | Updated 32 minutes ago

Partly Cloudy
Partly Cloudy
19 °F
Feels Like 19 °F
N
1
Wind Variable Wind from NNW
Gusts 2.0 mph

Today
High -- | Low -- °F
--% Chance of Precip.
Yesterday
High -- | Low -- °F
Precip. -- in
7:26 AM 4:36 PM
Waning Crescent, 15% visible
Pressure 30.31 in
Visibility 10.0 miles
Clouds Few 400 ft
Mostly Cloudy 12000 ft
Windchill 19 °F
Dew Point 16 °F
Humidity 88%
Rainfall -999.00 in
Snow Depth Not available.
UV 0 out of 12
Pollen .10 out of 12
Air Quality Not available.
Flu Activity Not available.
METAR KMUT 181115Z AUTO 00000KT 10SM FEW004 BKN120 M06/M08 A3031 RMK AO2

More Conditions Fewer Conditions

Pressure 30.31 in
Visibility 10.0 miles
Clouds Few 400 ft
Mostly Cloudy 12000 ft
Windchill 19 °F
Dew Point 16 °F
Humidity 88%
Rainfall -999.00 in
Snow Depth Not available.
UV 0 out of 12
Pollen .10 out of 12
Air Quality Not available.
Flu Activity Not available.
METAR KMUT 181115Z AUTO 00000KT 10SM FEW004 BKN120 M06/M08 A3031 RMK AO2

More Conditions Fewer Conditions

10-Day Weather Forecast

Almanac

Astronomy

Dec. 18, 2014 Rise Set
Actual Time
Civil Twilight
Nautical Twilight
Astronomical Twilight
Moon
Length of Visible Light
Length of Day
Tomorrow will be .
, % of the Moon is Illuminated

Today's Extremes

State Highs State Lows

Community

WunderPhotos

Upload Photos

1,778,916 photos uploaded!

WunderBlogs® & News

Nearby

Air Quality

  Air Quality AQ Index Pollutant
Not available.

Snow Depth

Station Depth Elevation

Earthquake Activity

City Distance Mag. Time & Date
Minimum magnitude displayed is 2.5.

Coastal Water Temperatures

Place Temperature

Nearby Weather Stations